Terminal Aerodrome Forecast
Issued by NWS Sioux Falls, SD

Home | Current Version | Previous Version | Graphics & Text | Print | Product List | Glossary Off
Versions: 1 2 3 4 5 6 7 8 9 10 11 12 13 14 15

538
FTUS43 KFSD 220522
TAFHON
TAF
KHON 220522Z 2206/2306 21005KT P6SM BKN120
     FM221700 28012G18KT P6SM SCT200
     FM222300 32013KT P6SM BKN050
     FM230200 35010KT P6SM BKN030=

USA.gov is the U.S. government's official web portal to all federal, state and local government web resources and services.